Pruitt, Arkansas
Current Conditions -  °F | °C
As of 1:53 AM on Thursday 29 Jan 2015 (Local Time) from KHRO Reporting Station
Clear Clear  
Wind Chill: 64°   Ceiling: Unl
Heat Index: 64°   Visibility: 10mi
Dew Point: 42°   Wind: 13mph
Humidity: 45%   Direction: 240°WSW
Pressure: 29.91"   Gusts: 28mph
Location:  36.0842°N, 93.1502°W
Report Text: KHRO 290753Z AUTO 24011G24KT 10SM CLR 18/06 A2991 RMK AO2 SLP119 T01780056
Loading
Personal Weather Stations






























Interactive Weather Map New forecast layout! Learn more

10-Day Weather Forecast

Advertisements
Track Severe Weather on mobile